SKSP/ADZ METAR and TAF weather

Enter ICAO airport designator
Station Type Date Time Source
SKSP METAR 2020/09/26 23:00 UTC NOAA

SKSP 262300Z 14003KT 090V160 9999 FEW018 BKN200 28/24 A2984


Station Type Date Time Source
SKSP Decoded METAR 2020/09/26 23:00 UTC NOAA

San Andres Isla / Sesquicentenario, Colombia (SKSP) 12-35N 081-43W 6M
Sep 26, 2020 - 07:00 PM EDT / 2020.09.26 2300 UTC
Wind: from the SE (140 degrees) at 3 MPH (3 KT) (direction variable):0
Visibility: greater than 7 mile(s):0
Sky conditions: mostly cloudy
Temperature: 82 F (28 C)
Dew Point: 75 F (24 C)
Relative Humidity: 78%
Pressure (altimeter): 29.84 in. Hg (1010 hPa)
ob: SKSP 262300Z 14003KT 090V160 9999 FEW018 BKN200 28/24 A2984
cycle: 23

Station Type Date Time Source
SKSP TAF 2020/09/26 18:45 UTC NOAA

TAF COR SKSP 261630Z 2618/2718 08012KT 9999 FEW017 SCT080 PROB40
TEMPO 2618/2620 7000 TSRA SCT015CB PROB40
TEMPO 2623/2702 7000 SHRA SCT015TCU PROB40
TEMPO 2708/2712 8000 DZRA SCT015 BKN080 TX32/2618Z TN26/2710Z

Example: see airport list